sensor_id;sensor_type;location;lat;lon;timestamp;temperature;humidity
4324;DHT22;2175;51.018;6.994;2023-02-01T00:01:50;7.00;99.90
4324;DHT22;2175;51.018;6.994;2023-02-01T00:04:16;7.00;99.90
4324;DHT22;2175;51.018;6.994;2023-02-01T00:06:41;7.00;99.90
4324;DHT22;2175;51.018;6.994;2023-02-01T00:09:07;7.00;99.90
4324;DHT22;2175;51.018;6.994;2023-02-01T00:11:33;6.90;99.90
4324;DHT22;2175;51.018;6.994;2023-02-01T00:13:59;6.90;99.90
4324;DHT22;2175;51.018;6.994;2023-02-01T00:16:27;6.90;99.90
4324;DHT22;2175;51.018;6.994;2023-02-01T00:21:26;7.00;99.90
4324;DHT22;2175;51.018;6.994;2023-02-01T00:23:51;7.10;99.90
4324;DHT22;2175;51.018;6.994;2023-02-01T00:26:20;7.10;99.90
4324;DHT22;2175;51.018;6.994;2023-02-01T00:28:47;7.10;99.90
4324;DHT22;2175;51.018;6.994;2023-02-01T00:31:12;7.10;99.90
4324;DHT22;2175;51.018;6.994;2023-02-01T00:33:38;7.10;99.90
4324;DHT22;2175;51.018;6.994;2023-02-01T00:36:06;7.00;99.90
4324;DHT22;2175;51.018;6.994;2023-02-01T00:38:33;7.10;99.90
4324;DHT22;2175;51.018;6.994;2023-02-01T00:41:14;7.00;99.90
4324;DHT22;2175;51.018;6.994;2023-02-01T00:43:40;7.00;99.90
4324;DHT22;2175;51.018;6.994;2023-02-01T00:46:06;7.00;99.90
4324;DHT22;2175;51.018;6.994;2023-02-01T00:48:32;7.10;99.90
4324;DHT22;2175;51.018;6.994;2023-02-01T00:51:02;7.00;99.90
4324;DHT22;2175;51.018;6.994;2023-02-01T00:53:29;7.00;99.90
4324;DHT22;2175;51.018;6.994;2023-02-01T00:55:54;6.90;99.90
4324;DHT22;2175;51.018;6.994;2023-02-01T00:58:21;6.80;99.90
4324;DHT22;2175;51.018;6.994;2023-02-01T01:00:49;6.90;99.90
4324;DHT22;2175;51.018;6.994;2023-02-01T01:03:15;6.90;99.90
4324;DHT22;2175;51.018;6.994;2023-02-01T01:05:46;6.80;99.90
4324;DHT22;2175;51.018;6.994;2023-02-01T01:08:13;6.70;99.90
4324;DHT22;2175;51.018;6.994;2023-02-01T01:10:39;6.80;99.90
4324;DHT22;2175;51.018;6.994;2023-02-01T01:13:05;6.70;99.90
4324;DHT22;2175;51.018;6.994;2023-02-01T01:15:30;6.80;99.90
4324;DHT22;2175;51.018;6.994;2023-02-01T01:17:56;6.80;99.90
4324;DHT22;2175;51.018;6.994;2023-02-01T01:20:22;6.70;99.90
4324;DHT22;2175;51.018;6.994;2023-02-01T01:22:48;6.70;99.90
4324;DHT22;2175;51.018;6.994;2023-02-01T01:25:14;6.70;99.90
4324;DHT22;2175;51.018;6.994;2023-02-01T01:27:40;6.60;99.90
4324;DHT22;2175;51.018;6.994;2023-02-01T01:30:06;6.50;99.90
4324;DHT22;2175;51.018;6.994;2023-02-01T01:32:32;6.50;99.90
4324;DHT22;2175;51.018;6.994;2023-02-01T01:34:57;6.50;99.90
4324;DHT22;2175;51.018;6.994;2023-02-01T01:37:23;6.50;99.90
4324;DHT22;2175;51.018;6.994;2023-02-01T01:39:48;6.40;99.90
4324;DHT22;2175;51.018;6.994;2023-02-01T01:42:14;6.40;99.90
4324;DHT22;2175;51.018;6.994;2023-02-01T01:47:24;6.30;99.90
4324;DHT22;2175;51.018;6.994;2023-02-01T01:49:50;6.30;99.90
4324;DHT22;2175;51.018;6.994;2023-02-01T01:52:16;6.30;99.90
4324;DHT22;2175;51.018;6.994;2023-02-01T01:54:45;6.30;99.90
4324;DHT22;2175;51.018;6.994;2023-02-01T01:57:18;6.30;99.90
4324;DHT22;2175;51.018;6.994;2023-02-01T01:59:56;6.30;99.90
4324;DHT22;2175;51.018;6.994;2023-02-01T02:02:24;6.30;99.90
4324;DHT22;2175;51.018;6.994;2023-02-01T02:04:50;6.40;99.90
4324;DHT22;2175;51.018;6.994;2023-02-01T02:07:20;6.30;99.90
4324;DHT22;2175;51.018;6.994;2023-02-01T02:09:47;6.40;99.90
4324;DHT22;2175;51.018;6.994;2023-02-01T02:12:13;6.30;99.90
4324;DHT22;2175;51.018;6.994;2023-02-01T02:14:39;6.40;99.90
4324;DHT22;2175;51.018;6.994;2023-02-01T02:28:35;6.40;99.90
4324;DHT22;2175;51.018;6.994;2023-02-01T02:50:42;6.40;99.90
4324;DHT22;2175;51.018;6.994;2023-02-01T02:56:20;6.40;99.90
4324;DHT22;2175;51.018;6.994;2023-02-01T02:59:07;6.50;99.90
4324;DHT22;2175;51.018;6.994;2023-02-01T03:01:52;6.40;99.90
4324;DHT22;2175;51.018;6.994;2023-02-01T03:04:37;6.40;99.90
4324;DHT22;2175;51.018;6.994;2023-02-01T03:16:21;6.50;99.90
4324;DHT22;2175;51.018;6.994;2023-02-01T03:19:02;6.50;99.90
4324;DHT22;2175;51.018;6.994;2023-02-01T03:21:43;6.50;99.90
4324;DHT22;2175;51.018;6.994;2023-02-01T03:27:10;6.70;99.90
4324;DHT22;2175;51.018;6.994;2023-02-01T03:29:52;6.70;99.90
4324;DHT22;2175;51.018;6.994;2023-02-01T03:32:20;6.80;99.90
4324;DHT22;2175;51.018;6.994;2023-02-01T03:34:46;6.70;99.90
4324;DHT22;2175;51.018;6.994;2023-02-01T03:37:21;6.80;99.90
4324;DHT22;2175;51.018;6.994;2023-02-01T03:39:57;6.80;99.90
4324;DHT22;2175;51.018;6.994;2023-02-01T03:45:05;6.70;99.90
4324;DHT22;2175;51.018;6.994;2023-02-01T03:47:35;6.70;99.90
4324;DHT22;2175;51.018;6.994;2023-02-01T03:50:06;6.70;99.90
4324;DHT22;2175;51.018;6.994;2023-02-01T03:55:11;6.60;99.90
4324;DHT22;2175;51.018;6.994;2023-02-01T03:57:43;6.50;99.90
4324;DHT22;2175;51.018;6.994;2023-02-01T04:00:17;6.50;99.90
4324;DHT22;2175;51.018;6.994;2023-02-01T04:02:42;6.50;99.90
4324;DHT22;2175;51.018;6.994;2023-02-01T04:05:08;6.60;99.90
4324;DHT22;2175;51.018;6.994;2023-02-01T04:07:34;6.60;99.90
4324;DHT22;2175;51.018;6.994;2023-02-01T04:09:59;6.60;99.90
4324;DHT22;2175;51.018;6.994;2023-02-01T04:12:27;6.70;99.90
4324;DHT22;2175;51.018;6.994;2023-02-01T04:14:53;6.70;99.90
4324;DHT22;2175;51.018;6.994;2023-02-01T04:17:18;6.60;99.90
4324;DHT22;2175;51.018;6.994;2023-02-01T04:19:44;6.60;99.90
4324;DHT22;2175;51.018;6.994;2023-02-01T04:22:09;6.60;99.90
4324;DHT22;2175;51.018;6.994;2023-02-01T04:24:35;6.50;99.90
4324;DHT22;2175;51.018;6.994;2023-02-01T04:27:01;6.50;99.90
4324;DHT22;2175;51.018;6.994;2023-02-01T04:29:28;6.50;99.90
4324;DHT22;2175;51.018;6.994;2023-02-01T04:31:53;6.60;99.90
4324;DHT22;2175;51.018;6.994;2023-02-01T04:34:19;6.60;99.90
4324;DHT22;2175;51.018;6.994;2023-02-01T04:36:44;6.50;99.90
4324;DHT22;2175;51.018;6.994;2023-02-01T04:39:10;6.50;99.90
4324;DHT22;2175;51.018;6.994;2023-02-01T04:41:36;6.40;99.90
4324;DHT22;2175;51.018;6.994;2023-02-01T04:44:01;6.40;99.90
4324;DHT22;2175;51.018;6.994;2023-02-01T04:46:27;6.40;99.90
4324;DHT22;2175;51.018;6.994;2023-02-01T04:48:52;6.20;99.90
4324;DHT22;2175;51.018;6.994;2023-02-01T04:51:18;6.20;99.90
4324;DHT22;2175;51.018;6.994;2023-02-01T04:53:44;6.20;99.90
4324;DHT22;2175;51.018;6.994;2023-02-01T04:56:10;6.20;99.90
4324;DHT22;2175;51.018;6.994;2023-02-01T04:58:36;6.10;99.90
4324;DHT22;2175;51.018;6.994;2023-02-01T05:01:05;6.10;99.90
4324;DHT22;2175;51.018;6.994;2023-02-01T05:03:35;6.20;99.90
4324;DHT22;2175;51.018;6.994;2023-02-01T05:06:00;6.20;99.90
4324;DHT22;2175;51.018;6.994;2023-02-01T05:08:26;6.20;99.90
4324;DHT22;2175;51.018;6.994;2023-02-01T05:10:52;6.20;99.90
4324;DHT22;2175;51.018;6.994;2023-02-01T05:13:18;6.10;99.90
4324;DHT22;2175;51.018;6.994;2023-02-01T05:16:02;6.20;99.90
4324;DHT22;2175;51.018;6.994;2023-02-01T05:18:28;6.10;99.90
4324;DHT22;2175;51.018;6.994;2023-02-01T05:20:53;6.10;99.90
4324;DHT22;2175;51.018;6.994;2023-02-01T05:23:19;6.10;99.90
4324;DHT22;2175;51.018;6.994;2023-02-01T05:25:44;6.10;99.90
4324;DHT22;2175;51.018;6.994;2023-02-01T05:28:10;6.10;99.90
4324;DHT22;2175;51.018;6.994;2023-02-01T05:30:36;6.00;99.90
4324;DHT22;2175;51.018;6.994;2023-02-01T05:33:02;6.00;99.90
4324;DHT22;2175;51.018;6.994;2023-02-01T05:35:28;6.00;99.90
4324;DHT22;2175;51.018;6.994;2023-02-01T05:37:53;6.00;99.90
4324;DHT22;2175;51.018;6.994;2023-02-01T05:40:19;6.00;99.90
4324;DHT22;2175;51.018;6.994;2023-02-01T05:42:44;5.90;99.90
4324;DHT22;2175;51.018;6.994;2023-02-01T05:45:10;6.00;99.90
4324;DHT22;2175;51.018;6.994;2023-02-01T05:47:36;5.90;99.90
4324;DHT22;2175;51.018;6.994;2023-02-01T05:50:03;5.90;99.90
4324;DHT22;2175;51.018;6.994;2023-02-01T05:52:29;5.90;99.90
4324;DHT22;2175;51.018;6.994;2023-02-01T05:54:55;5.90;99.90
4324;DHT22;2175;51.018;6.994;2023-02-01T05:57:21;5.90;99.90
4324;DHT22;2175;51.018;6.994;2023-02-01T05:59:46;5.80;99.90
4324;DHT22;2175;51.018;6.994;2023-02-01T06:02:16;5.90;99.90
4324;DHT22;2175;51.018;6.994;2023-02-01T06:04:42;6.00;99.90
4324;DHT22;2175;51.018;6.994;2023-02-01T06:07:08;6.00;99.90
4324;DHT22;2175;51.018;6.994;2023-02-01T06:09:35;5.90;99.90
4324;DHT22;2175;51.018;6.994;2023-02-01T06:12:02;5.90;99.90
4324;DHT22;2175;51.018;6.994;2023-02-01T06:14:28;6.00;99.90
4324;DHT22;2175;51.018;6.994;2023-02-01T06:16:56;6.00;99.90
4324;DHT22;2175;51.018;6.994;2023-02-01T06:19:22;5.90;99.90
4324;DHT22;2175;51.018;6.994;2023-02-01T06:21:48;5.80;99.90
4324;DHT22;2175;51.018;6.994;2023-02-01T06:24:14;5.70;99.90
4324;DHT22;2175;51.018;6.994;2023-02-01T06:26:40;5.80;99.90
4324;DHT22;2175;51.018;6.994;2023-02-01T06:29:12;5.80;99.90
4324;DHT22;2175;51.018;6.994;2023-02-01T06:31:38;5.80;99.90
4324;DHT22;2175;51.018;6.994;2023-02-01T06:34:03;5.80;99.90
4324;DHT22;2175;51.018;6.994;2023-02-01T06:36:29;5.80;99.90
4324;DHT22;2175;51.018;6.994;2023-02-01T06:38:58;5.80;99.90
4324;DHT22;2175;51.018;6.994;2023-02-01T06:41:25;5.80;99.90
4324;DHT22;2175;51.018;6.994;2023-02-01T06:43:51;5.90;99.90
4324;DHT22;2175;51.018;6.994;2023-02-01T06:46:16;5.90;99.90
4324;DHT22;2175;51.018;6.994;2023-02-01T06:48:42;6.00;99.90
4324;DHT22;2175;51.018;6.994;2023-02-01T06:51:25;6.00;99.90
4324;DHT22;2175;51.018;6.994;2023-02-01T06:53:51;6.00;99.90
4324;DHT22;2175;51.018;6.994;2023-02-01T06:56:18;5.90;99.90
4324;DHT22;2175;51.018;6.994;2023-02-01T06:58:44;6.00;99.90
4324;DHT22;2175;51.018;6.994;2023-02-01T07:01:10;5.90;99.90
4324;DHT22;2175;51.018;6.994;2023-02-01T07:03:36;6.00;99.90
4324;DHT22;2175;51.018;6.994;2023-02-01T07:06:03;6.00;99.90
4324;DHT22;2175;51.018;6.994;2023-02-01T07:08:31;5.90;99.90
4324;DHT22;2175;51.018;6.994;2023-02-01T07:11:00;6.00;99.90
4324;DHT22;2175;51.018;6.994;2023-02-01T07:13:26;6.00;99.90
4324;DHT22;2175;51.018;6.994;2023-02-01T07:15:51;5.90;99.90
4324;DHT22;2175;51.018;6.994;2023-02-01T07:18:17;6.00;99.90
4324;DHT22;2175;51.018;6.994;2023-02-01T07:20:43;6.00;99.90
4324;DHT22;2175;51.018;6.994;2023-02-01T07:23:10;6.10;99.90
4324;DHT22;2175;51.018;6.994;2023-02-01T07:25:36;6.10;99.90
4324;DHT22;2175;51.018;6.994;2023-02-01T07:28:02;6.00;99.90
4324;DHT22;2175;51.018;6.994;2023-02-01T07:30:28;6.10;99.90
4324;DHT22;2175;51.018;6.994;2023-02-01T07:32:53;6.20;99.90
4324;DHT22;2175;51.018;6.994;2023-02-01T07:35:19;6.20;99.90
4324;DHT22;2175;51.018;6.994;2023-02-01T07:38:06;6.20;99.90
4324;DHT22;2175;51.018;6.994;2023-02-01T07:40:51;6.20;99.90
4324;DHT22;2175;51.018;6.994;2023-02-01T07:43:21;6.20;99.90
4324;DHT22;2175;51.018;6.994;2023-02-01T07:45:51;6.30;99.90
4324;DHT22;2175;51.018;6.994;2023-02-01T07:48:17;6.20;99.90
4324;DHT22;2175;51.018;6.994;2023-02-01T07:50:43;6.20;99.90
4324;DHT22;2175;51.018;6.994;2023-02-01T07:53:09;6.20;99.90
4324;DHT22;2175;51.018;6.994;2023-02-01T07:55:37;6.10;99.90
4324;DHT22;2175;51.018;6.994;2023-02-01T07:58:03;6.10;99.90
4324;DHT22;2175;51.018;6.994;2023-02-01T08:00:29;6.10;99.90
4324;DHT22;2175;51.018;6.994;2023-02-01T08:03:13;6.20;99.90
4324;DHT22;2175;51.018;6.994;2023-02-01T08:05:38;6.30;99.90
4324;DHT22;2175;51.018;6.994;2023-02-01T08:08:05;6.30;99.90
4324;DHT22;2175;51.018;6.994;2023-02-01T08:10:30;6.30;99.90
4324;DHT22;2175;51.018;6.994;2023-02-01T08:12:59;6.30;99.90
4324;DHT22;2175;51.018;6.994;2023-02-01T08:15:27;6.20;99.90
4324;DHT22;2175;51.018;6.994;2023-02-01T08:17:52;6.10;99.90
4324;DHT22;2175;51.018;6.994;2023-02-01T08:20:20;6.20;99.90
4324;DHT22;2175;51.018;6.994;2023-02-01T08:22:52;6.20;99.90
4324;DHT22;2175;51.018;6.994;2023-02-01T08:25:18;6.00;99.90
4324;DHT22;2175;51.018;6.994;2023-02-01T08:27:44;6.20;99.90
4324;DHT22;2175;51.018;6.994;2023-02-01T08:30:10;6.20;99.90
4324;DHT22;2175;51.018;6.994;2023-02-01T08:32:36;6.20;99.90
4324;DHT22;2175;51.018;6.994;2023-02-01T08:35:03;6.20;99.90
4324;DHT22;2175;51.018;6.994;2023-02-01T08:37:29;6.10;99.90
4324;DHT22;2175;51.018;6.994;2023-02-01T08:39:55;6.10;99.90
4324;DHT22;2175;51.018;6.994;2023-02-01T08:42:20;6.10;99.90
4324;DHT22;2175;51.018;6.994;2023-02-01T08:45:05;6.20;99.90
4324;DHT22;2175;51.018;6.994;2023-02-01T08:47:31;6.20;99.90
4324;DHT22;2175;51.018;6.994;2023-02-01T08:49:56;6.30;99.90
4324;DHT22;2175;51.018;6.994;2023-02-01T08:52:22;6.40;99.90
4324;DHT22;2175;51.018;6.994;2023-02-01T08:54:48;6.40;99.90
4324;DHT22;2175;51.018;6.994;2023-02-01T08:57:13;6.40;99.90
4324;DHT22;2175;51.018;6.994;2023-02-01T08:59:39;6.40;99.90
4324;DHT22;2175;51.018;6.994;2023-02-01T09:02:05;6.50;99.90
4324;DHT22;2175;51.018;6.994;2023-02-01T09:04:30;6.50;99.90
4324;DHT22;2175;51.018;6.994;2023-02-01T09:06:56;6.60;99.90
4324;DHT22;2175;51.018;6.994;2023-02-01T09:09:22;6.60;99.90
4324;DHT22;2175;51.018;6.994;2023-02-01T09:11:48;6.60;99.90
4324;DHT22;2175;51.018;6.994;2023-02-01T09:14:16;6.60;99.90
4324;DHT22;2175;51.018;6.994;2023-02-01T09:16:41;6.60;99.90
4324;DHT22;2175;51.018;6.994;2023-02-01T09:19:07;6.70;99.90
4324;DHT22;2175;51.018;6.994;2023-02-01T09:21:32;6.70;99.90
4324;DHT22;2175;51.018;6.994;2023-02-01T09:23:58;6.70;99.90
4324;DHT22;2175;51.018;6.994;2023-02-01T09:26:24;6.60;99.90
4324;DHT22;2175;51.018;6.994;2023-02-01T09:28:51;6.60;99.90
4324;DHT22;2175;51.018;6.994;2023-02-01T09:31:16;6.70;99.90
4324;DHT22;2175;51.018;6.994;2023-02-01T09:33:42;6.70;99.90
4324;DHT22;2175;51.018;6.994;2023-02-01T09:36:07;6.70;99.90
4324;DHT22;2175;51.018;6.994;2023-02-01T09:38:33;6.70;99.90
4324;DHT22;2175;51.018;6.994;2023-02-01T09:40:59;6.70;99.90
4324;DHT22;2175;51.018;6.994;2023-02-01T09:43:49;6.80;99.90
4324;DHT22;2175;51.018;6.994;2023-02-01T09:46:23;6.80;99.90
4324;DHT22;2175;51.018;6.994;2023-02-01T09:48:53;6.90;99.90
4324;DHT22;2175;51.018;6.994;2023-02-01T09:51:24;6.80;99.90
4324;DHT22;2175;51.018;6.994;2023-02-01T09:54:08;6.80;99.90
4324;DHT22;2175;51.018;6.994;2023-02-01T09:56:40;6.80;99.90
4324;DHT22;2175;51.018;6.994;2023-02-01T09:59:18;6.90;99.90
4324;DHT22;2175;51.018;6.994;2023-02-01T10:01:47;6.90;99.90
4324;DHT22;2175;51.018;6.994;2023-02-01T10:04:14;6.90;99.90
4324;DHT22;2175;51.018;6.994;2023-02-01T10:14:41;6.80;99.90
4324;DHT22;2175;51.018;6.994;2023-02-01T10:17:45;6.90;99.90
4324;DHT22;2175;51.018;6.994;2023-02-01T10:21:02;6.90;99.90
4324;DHT22;2175;51.018;6.994;2023-02-01T10:26:22;7.20;99.90
4324;DHT22;2175;51.018;6.994;2023-02-01T10:29:00;7.30;99.90
4324;DHT22;2175;51.018;6.994;2023-02-01T10:31:29;7.40;99.90
4324;DHT22;2175;51.018;6.994;2023-02-01T10:34:33;7.60;99.90
4324;DHT22;2175;51.018;6.994;2023-02-01T10:37:11;7.70;99.90
4324;DHT22;2175;51.018;6.994;2023-02-01T10:39:38;7.80;99.90
4324;DHT22;2175;51.018;6.994;2023-02-01T10:42:04;8.00;99.90
4324;DHT22;2175;51.018;6.994;2023-02-01T10:44:31;8.20;99.90
4324;DHT22;2175;51.018;6.994;2023-02-01T10:47:03;8.40;99.90
4324;DHT22;2175;51.018;6.994;2023-02-01T10:49:43;8.30;99.90
4324;DHT22;2175;51.018;6.994;2023-02-01T10:52:21;8.60;99.90
4324;DHT22;2175;51.018;6.994;2023-02-01T10:54:50;8.90;99.90
4324;DHT22;2175;51.018;6.994;2023-02-01T10:57:25;8.70;99.90
4324;DHT22;2175;51.018;6.994;2023-02-01T10:59:54;8.70;99.90
4324;DHT22;2175;51.018;6.994;2023-02-01T11:02:30;8.80;99.90
4324;DHT22;2175;51.018;6.994;2023-02-01T11:05:05;8.70;99.90
4324;DHT22;2175;51.018;6.994;2023-02-01T11:07:34;8.60;99.90
4324;DHT22;2175;51.018;6.994;2023-02-01T11:10:00;8.50;99.90
4324;DHT22;2175;51.018;6.994;2023-02-01T11:12:36;8.20;99.90
4324;DHT22;2175;51.018;6.994;2023-02-01T11:17:34;7.80;99.90
4324;DHT22;2175;51.018;6.994;2023-02-01T11:20:15;7.80;99.90
4324;DHT22;2175;51.018;6.994;2023-02-01T11:22:47;7.80;99.90
4324;DHT22;2175;51.018;6.994;2023-02-01T11:25:15;7.70;99.90
4324;DHT22;2175;51.018;6.994;2023-02-01T11:27:41;7.70;99.90
4324;DHT22;2175;51.018;6.994;2023-02-01T11:30:14;7.60;99.90
4324;DHT22;2175;51.018;6.994;2023-02-01T11:32:40;7.70;99.90
4324;DHT22;2175;51.018;6.994;2023-02-01T11:35:06;7.80;99.90
4324;DHT22;2175;51.018;6.994;2023-02-01T11:37:41;7.70;99.90
4324;DHT22;2175;51.018;6.994;2023-02-01T11:43:00;7.90;99.90
4324;DHT22;2175;51.018;6.994;2023-02-01T11:45:32;7.80;99.90
4324;DHT22;2175;51.018;6.994;2023-02-01T11:47:59;7.80;99.90
4324;DHT22;2175;51.018;6.994;2023-02-01T12:02:18;7.80;99.90
4324;DHT22;2175;51.018;6.994;2023-02-01T12:05:04;7.80;99.90
4324;DHT22;2175;51.018;6.994;2023-02-01T12:28:23;7.80;99.90
4324;DHT22;2175;51.018;6.994;2023-02-01T13:27:10;7.70;99.90
4324;DHT22;2175;51.018;6.994;2023-02-01T13:50:50;7.70;99.90
4324;DHT22;2175;51.018;6.994;2023-02-01T14:11:35;8.10;99.90
4324;DHT22;2175;51.018;6.994;2023-02-01T14:24:53;8.20;99.90
4324;DHT22;2175;51.018;6.994;2023-02-01T15:28:22;8.30;99.90
4324;DHT22;2175;51.018;6.994;2023-02-01T15:33:19;8.20;99.90
4324;DHT22;2175;51.018;6.994;2023-02-01T15:35:47;8.20;99.90
4324;DHT22;2175;51.018;6.994;2023-02-01T15:43:33;8.20;99.90
4324;DHT22;2175;51.018;6.994;2023-02-01T15:46:02;8.20;99.90
4324;DHT22;2175;51.018;6.994;2023-02-01T15:48:35;8.10;99.90
4324;DHT22;2175;51.018;6.994;2023-02-01T15:51:03;8.20;99.90
4324;DHT22;2175;51.018;6.994;2023-02-01T15:53:29;8.20;99.90
4324;DHT22;2175;51.018;6.994;2023-02-01T15:56:00;8.30;99.90
4324;DHT22;2175;51.018;6.994;2023-02-01T15:58:27;8.30;99.90
4324;DHT22;2175;51.018;6.994;2023-02-01T16:00:59;8.40;99.90
4324;DHT22;2175;51.018;6.994;2023-02-01T16:05:59;8.40;99.90
4324;DHT22;2175;51.018;6.994;2023-02-01T16:08:28;8.40;99.90
4324;DHT22;2175;51.018;6.994;2023-02-01T16:13:34;8.30;99.90
4324;DHT22;2175;51.018;6.994;2023-02-01T16:15:59;8.40;99.90
4324;DHT22;2175;51.018;6.994;2023-02-01T16:18:25;8.40;99.90
4324;DHT22;2175;51.018;6.994;2023-02-01T16:20:51;8.40;99.90
4324;DHT22;2175;51.018;6.994;2023-02-01T16:23:17;8.40;99.90
4324;DHT22;2175;51.018;6.994;2023-02-01T16:25:42;8.40;99.90
4324;DHT22;2175;51.018;6.994;2023-02-01T16:28:08;8.30;99.90
4324;DHT22;2175;51.018;6.994;2023-02-01T16:30:35;8.40;99.90
4324;DHT22;2175;51.018;6.994;2023-02-01T16:33:01;8.40;99.90
4324;DHT22;2175;51.018;6.994;2023-02-01T16:35:37;8.40;99.90
4324;DHT22;2175;51.018;6.994;2023-02-01T16:38:13;8.30;99.90
4324;DHT22;2175;51.018;6.994;2023-02-01T16:40:41;8.30;99.90
4324;DHT22;2175;51.018;6.994;2023-02-01T16:43:19;8.30;99.90
4324;DHT22;2175;51.018;6.994;2023-02-01T16:45:46;8.20;99.90
4324;DHT22;2175;51.018;6.994;2023-02-01T16:48:21;8.20;99.90
4324;DHT22;2175;51.018;6.994;2023-02-01T16:50:50;8.20;99.90
4324;DHT22;2175;51.018;6.994;2023-02-01T16:53:17;8.20;99.90
4324;DHT22;2175;51.018;6.994;2023-02-01T16:55:43;8.10;99.90
4324;DHT22;2175;51.018;6.994;2023-02-01T16:58:09;8.20;99.90
4324;DHT22;2175;51.018;6.994;2023-02-01T17:00:35;8.10;99.90
4324;DHT22;2175;51.018;6.994;2023-02-01T17:03:03;8.00;99.90
4324;DHT22;2175;51.018;6.994;2023-02-01T17:05:31;8.00;99.90
4324;DHT22;2175;51.018;6.994;2023-02-01T17:08:05;8.10;99.90
4324;DHT22;2175;51.018;6.994;2023-02-01T17:10:31;8.00;99.90
4324;DHT22;2175;51.018;6.994;2023-02-01T17:12:57;7.90;99.90
4324;DHT22;2175;51.018;6.994;2023-02-01T17:15:24;8.00;99.90
4324;DHT22;2175;51.018;6.994;2023-02-01T17:17:51;8.00;99.90
4324;DHT22;2175;51.018;6.994;2023-02-01T17:20:22;7.90;99.90
4324;DHT22;2175;51.018;6.994;2023-02-01T17:22:49;8.00;99.90
4324;DHT22;2175;51.018;6.994;2023-02-01T17:25:17;8.10;99.90
4324;DHT22;2175;51.018;6.994;2023-02-01T17:27:43;8.00;99.90
4324;DHT22;2175;51.018;6.994;2023-02-01T17:30:13;8.00;99.90
4324;DHT22;2175;51.018;6.994;2023-02-01T17:32:39;8.00;99.90
4324;DHT22;2175;51.018;6.994;2023-02-01T17:35:09;7.90;99.90
4324;DHT22;2175;51.018;6.994;2023-02-01T17:37:37;7.90;99.90
4324;DHT22;2175;51.018;6.994;2023-02-01T17:40:03;8.00;99.90
4324;DHT22;2175;51.018;6.994;2023-02-01T17:42:29;8.00;99.90
4324;DHT22;2175;51.018;6.994;2023-02-01T17:47:40;7.90;99.90
4324;DHT22;2175;51.018;6.994;2023-02-01T17:50:06;7.90;99.90
4324;DHT22;2175;51.018;6.994;2023-02-01T17:52:32;7.90;99.90
4324;DHT22;2175;51.018;6.994;2023-02-01T17:55:00;7.90;99.90
4324;DHT22;2175;51.018;6.994;2023-02-01T17:57:28;8.00;99.90
4324;DHT22;2175;51.018;6.994;2023-02-01T17:59:53;8.00;99.90
4324;DHT22;2175;51.018;6.994;2023-02-01T18:02:21;8.00;99.90
4324;DHT22;2175;51.018;6.994;2023-02-01T18:04:47;8.00;99.90
4324;DHT22;2175;51.018;6.994;2023-02-01T18:07:14;8.00;99.90
4324;DHT22;2175;51.018;6.994;2023-02-01T18:09:39;7.90;99.90
4324;DHT22;2175;51.018;6.994;2023-02-01T18:12:06;7.90;99.90
4324;DHT22;2175;51.018;6.994;2023-02-01T18:14:36;7.90;99.90
4324;DHT22;2175;51.018;6.994;2023-02-01T18:17:01;7.90;99.90
4324;DHT22;2175;51.018;6.994;2023-02-01T18:19:27;7.90;99.90
4324;DHT22;2175;51.018;6.994;2023-02-01T18:21:53;7.90;99.90
4324;DHT22;2175;51.018;6.994;2023-02-01T18:24:21;8.00;99.90
4324;DHT22;2175;51.018;6.994;2023-02-01T18:26:48;7.80;99.90
4324;DHT22;2175;51.018;6.994;2023-02-01T18:29:13;7.80;99.90
4324;DHT22;2175;51.018;6.994;2023-02-01T18:31:47;8.00;99.90
4324;DHT22;2175;51.018;6.994;2023-02-01T18:34:13;7.90;99.90
4324;DHT22;2175;51.018;6.994;2023-02-01T18:36:45;7.90;99.90
4324;DHT22;2175;51.018;6.994;2023-02-01T18:39:11;7.90;99.90
4324;DHT22;2175;51.018;6.994;2023-02-01T18:41:36;7.90;99.90
4324;DHT22;2175;51.018;6.994;2023-02-01T18:44:02;7.90;99.90
4324;DHT22;2175;51.018;6.994;2023-02-01T18:46:28;7.90;99.90
4324;DHT22;2175;51.018;6.994;2023-02-01T18:48:54;7.90;99.90
4324;DHT22;2175;51.018;6.994;2023-02-01T18:51:20;7.80;99.90
4324;DHT22;2175;51.018;6.994;2023-02-01T18:53:47;7.80;99.90
4324;DHT22;2175;51.018;6.994;2023-02-01T18:56:14;7.80;99.90
4324;DHT22;2175;51.018;6.994;2023-02-01T18:58:41;7.90;99.90
4324;DHT22;2175;51.018;6.994;2023-02-01T19:01:17;7.90;99.90
4324;DHT22;2175;51.018;6.994;2023-02-01T19:03:43;8.00;99.90
4324;DHT22;2175;51.018;6.994;2023-02-01T19:06:09;7.90;99.90
4324;DHT22;2175;51.018;6.994;2023-02-01T19:08:35;7.90;99.90
4324;DHT22;2175;51.018;6.994;2023-02-01T19:11:04;7.90;99.90
4324;DHT22;2175;51.018;6.994;2023-02-01T19:13:30;8.00;99.90
4324;DHT22;2175;51.018;6.994;2023-02-01T19:15:56;8.00;99.90
4324;DHT22;2175;51.018;6.994;2023-02-01T19:18:22;8.00;99.90
4324;DHT22;2175;51.018;6.994;2023-02-01T19:20:48;8.00;99.90
4324;DHT22;2175;51.018;6.994;2023-02-01T19:23:19;8.10;99.90
4324;DHT22;2175;51.018;6.994;2023-02-01T19:25:46;8.00;99.90
4324;DHT22;2175;51.018;6.994;2023-02-01T19:28:12;8.00;99.90
4324;DHT22;2175;51.018;6.994;2023-02-01T19:30:38;7.90;99.90
4324;DHT22;2175;51.018;6.994;2023-02-01T19:33:04;8.00;99.90
4324;DHT22;2175;51.018;6.994;2023-02-01T19:35:30;8.00;99.90
4324;DHT22;2175;51.018;6.994;2023-02-01T19:37:56;8.00;99.90
4324;DHT22;2175;51.018;6.994;2023-02-01T19:40:22;8.00;99.90
4324;DHT22;2175;51.018;6.994;2023-02-01T19:42:50;8.00;99.90
4324;DHT22;2175;51.018;6.994;2023-02-01T19:45:16;8.00;99.90
4324;DHT22;2175;51.018;6.994;2023-02-01T19:47:41;8.00;99.90
4324;DHT22;2175;51.018;6.994;2023-02-01T19:50:08;8.10;99.90
4324;DHT22;2175;51.018;6.994;2023-02-01T19:52:35;8.10;99.90
4324;DHT22;2175;51.018;6.994;2023-02-01T19:55:02;8.20;99.90
4324;DHT22;2175;51.018;6.994;2023-02-01T19:57:29;8.20;99.90
4324;DHT22;2175;51.018;6.994;2023-02-01T19:59:55;8.10;99.90
4324;DHT22;2175;51.018;6.994;2023-02-01T20:02:20;8.10;99.90
4324;DHT22;2175;51.018;6.994;2023-02-01T20:04:47;8.20;99.90
4324;DHT22;2175;51.018;6.994;2023-02-01T20:07:12;8.10;99.90
4324;DHT22;2175;51.018;6.994;2023-02-01T20:09:39;8.20;99.90
4324;DHT22;2175;51.018;6.994;2023-02-01T20:12:09;8.10;99.90
4324;DHT22;2175;51.018;6.994;2023-02-01T20:14:37;8.10;99.90
4324;DHT22;2175;51.018;6.994;2023-02-01T20:17:03;8.20;99.90
4324;DHT22;2175;51.018;6.994;2023-02-01T20:19:30;8.20;99.90
4324;DHT22;2175;51.018;6.994;2023-02-01T20:21:55;8.10;99.90
4324;DHT22;2175;51.018;6.994;2023-02-01T20:24:21;8.10;99.90
4324;DHT22;2175;51.018;6.994;2023-02-01T20:26:47;8.10;99.90
4324;DHT22;2175;51.018;6.994;2023-02-01T20:29:14;8.20;99.90
4324;DHT22;2175;51.018;6.994;2023-02-01T20:31:40;8.10;99.90
4324;DHT22;2175;51.018;6.994;2023-02-01T20:34:06;8.10;99.90
4324;DHT22;2175;51.018;6.994;2023-02-01T20:36:32;8.20;99.90
4324;DHT22;2175;51.018;6.994;2023-02-01T20:38:59;8.20;99.90
4324;DHT22;2175;51.018;6.994;2023-02-01T20:41:25;8.10;99.90
4324;DHT22;2175;51.018;6.994;2023-02-01T20:43:51;8.20;99.90
4324;DHT22;2175;51.018;6.994;2023-02-01T20:46:17;8.10;99.90
4324;DHT22;2175;51.018;6.994;2023-02-01T20:48:46;8.10;99.90
4324;DHT22;2175;51.018;6.994;2023-02-01T20:51:14;8.30;99.90
4324;DHT22;2175;51.018;6.994;2023-02-01T20:53:41;8.30;99.90
4324;DHT22;2175;51.018;6.994;2023-02-01T20:56:07;8.20;99.90
4324;DHT22;2175;51.018;6.994;2023-02-01T20:58:45;8.20;99.90
4324;DHT22;2175;51.018;6.994;2023-02-01T21:01:11;8.20;99.90
4324;DHT22;2175;51.018;6.994;2023-02-01T21:03:37;8.20;99.90
4324;DHT22;2175;51.018;6.994;2023-02-01T21:06:04;8.30;99.90
4324;DHT22;2175;51.018;6.994;2023-02-01T21:08:31;8.20;99.90
4324;DHT22;2175;51.018;6.994;2023-02-01T21:11:06;8.20;99.90
4324;DHT22;2175;51.018;6.994;2023-02-01T21:13:34;8.20;99.90